Time;durP1;ratioP1;P1;durP2;ratioP2;P2;SDS_P1;SDS_P2;PMS_P1;PMS_P2;Temp;Humidity;BMP_temperature;BMP_pressure;BME280_temperature;BME280_humidity;BME280_pressure;Samples;Min_cycle;Max_cycle;Signal;HPM_P1;HPM_P2
2022/12/19 00:03:26;;;;;;;104.33;32.87;;;;;;;-6.32;100.00;102580.52;5114489;56;1143195;-74
2022/12/19 00:08:32;;;;;;;96.00;32.77;;;;;;;-6.30;100.00;102580.14;5134266;56;1145165;-78
2022/12/19 00:13:39;;;;;;;93.43;35.30;;;;;;;-6.30;100.00;102583.59;5069569;56;1142906;-71
2022/12/19 00:18:46;;;;;;;80.20;31.20;;;;;;;-6.30;100.00;102574.99;5114902;56;1143150;-73
2022/12/19 00:23:53;;;;;;;93.27;32.30;;;;;;;-6.31;100.00;102559.09;5134612;56;1143007;-78
2022/12/19 00:29:02;;;;;;;96.10;32.67;;;;;;;-6.34;100.00;102550.00;5114666;54;1142945;-70
2022/12/19 00:34:09;;;;;;;96.30;32.93;;;;;;;-6.37;100.00;102530.61;5114835;55;1142993;-72
2022/12/19 00:39:16;;;;;;;91.73;33.20;;;;;;;-6.43;100.00;102513.33;5135519;55;1143158;-72
2022/12/19 00:44:23;;;;;;;87.73;31.07;;;;;;;-6.47;100.00;102493.50;5114640;55;1142965;-72
2022/12/19 00:49:30;;;;;;;80.30;32.67;;;;;;;-6.48;100.00;102500.34;5114187;56;1143217;-72
2022/12/19 00:54:36;;;;;;;91.97;27.97;;;;;;;-6.48;100.00;102508.48;5114536;56;1143342;-78
2022/12/19 00:59:42;;;;;;;103.37;36.43;;;;;;;-6.53;100.00;102513.52;5134649;56;1143168;-78
2022/12/19 01:04:49;;;;;;;87.40;31.13;;;;;;;-6.55;100.00;102497.58;5115157;56;1145040;-78
2022/12/19 01:09:55;;;;;;;94.33;34.07;;;;;;;-6.56;100.00;102499.69;5113751;56;1143130;-77
2022/12/19 01:15:02;;;;;;;99.20;35.58;;;;;;;-6.56;100.00;102500.98;5135330;56;1143238;-71
2022/12/19 01:20:09;;;;;;;91.90;33.70;;;;;;;-6.59;100.00;102491.92;5115149;56;1143242;-75
2022/12/19 01:25:16;;;;;;;96.70;32.03;;;;;;;-6.64;100.00;102499.94;5111496;56;1146724;-76
2022/12/19 01:30:21;;;;;;;84.60;31.23;;;;;;;-6.67;100.00;102494.30;5130858;56;1142932;-72
2022/12/19 01:35:28;;;;;;;87.53;32.67;;;;;;;-6.68;100.00;102503.27;5114458;55;1142858;-78
2022/12/19 01:40:34;;;;;;;99.70;33.13;;;;;;;-6.70;100.00;102504.92;5115191;55;1142938;-73
2022/12/19 01:45:40;;;;;;;85.00;31.53;;;;;;;-6.69;100.00;102499.81;5115139;56;1143004;-74
2022/12/19 01:50:54;;;;;;;95.47;33.97;;;;;;;-6.73;100.00;102491.59;5135138;56;1143196;-76
2022/12/19 01:55:59;;;;;;;;;;;;;;;-6.75;100.00;102480.39;5118893;56;1143277;-73
2022/12/19 02:01:05;;;;;;;88.10;31.03;;;;;;;-6.82;100.00;102465.20;5123268;56;976137;-74
2022/12/19 02:06:14;;;;;;;88.60;31.00;;;;;;;-6.82;100.00;102453.63;5120215;56;1150677;-73
2022/12/19 02:11:21;;;;;;;92.97;32.93;;;;;;;-6.86;100.00;102444.09;5115152;56;1143080;-70
2022/12/19 02:17:05;;;;;;;99.00;31.75;;;;;;;-6.92;100.00;102435.38;5114561;56;1143011;-78
2022/12/19 02:22:27;;;;;;;86.10;33.23;;;;;;;-6.92;100.00;102435.38;5114118;56;1143252;-73
2022/12/19 02:28:01;;;;;;;87.93;31.43;;;;;;;-6.90;100.00;102428.57;5130335;56;1143331;-70
2022/12/19 02:33:25;;;;;;;90.27;31.10;;;;;;;-6.90;100.00;102432.43;5112265;55;1143472;-80
2022/12/19 02:38:35;;;;;;;86.10;30.03;;;;;;;-6.91;100.00;102408.41;5114477;56;1143155;-78
2022/12/19 02:43:44;;;;;;;91.02;30.23;;;;;;;-6.91;100.00;102400.70;5108360;56;1143056;-80
2022/12/19 02:48:51;;;;;;;87.70;32.53;;;;;;;-6.92;100.00;102407.95;5134750;56;1143273;-76
2022/12/19 02:53:57;;;;;;;82.47;29.90;;;;;;;-6.92;100.00;102409.66;5114503;56;1143067;-76
2022/12/19 02:59:39;;;;;;;81.40;28.30;;;;;;;-6.92;100.00;102412.23;5114170;56;1142939;-73
2022/12/19 03:04:58;;;;;;;84.62;29.77;;;;;;;-6.96;100.00;102391.12;5114553;56;1143280;-76
2022/12/19 03:10:25;;;;;;;73.57;27.17;;;;;;;-7.01;100.00;102389.71;5134962;56;1143205;-71
2022/12/19 03:15:33;;;;;;;74.57;26.17;;;;;;;-7.00;100.00;102377.73;5114427;56;1143131;-78
2022/12/19 03:21:20;;;;;;;75.33;26.63;;;;;;;-7.04;100.00;102375.94;5114504;56;1143183;-80
2022/12/19 03:26:31;;;;;;;78.15;27.60;;;;;;;-7.03;100.00;102368.27;5113549;56;1143147;-75
2022/12/19 03:31:39;;;;;;;74.17;27.57;;;;;;;-7.07;100.00;102353.59;5070195;55;1143301;-78
2022/12/19 03:36:52;;;;;;;75.47;26.20;;;;;;;-7.07;100.00;102347.16;5135094;55;1142929;-76
2022/12/19 03:47:30;;;;;;;74.42;26.48;;;;;;;-7.11;100.00;102352.64;5115092;55;1142968;-77
2022/12/19 03:52:52;;;;;;;71.93;26.33;;;;;;;-7.10;100.00;102338.08;5115728;55;1143230;-79
2022/12/19 03:58:10;;;;;;;82.93;26.20;;;;;;;-7.12;100.00;102328.17;5135575;55;1143201;-78
2022/12/19 04:03:18;;;;;;;67.45;24.18;;;;;;;-7.16;100.00;102323.78;5115734;55;1143168;-80
2022/12/19 04:08:25;;;;;;;80.23;27.80;;;;;;;-7.19;100.00;102314.33;5115694;55;1143146;-74
2022/12/19 04:13:35;;;;;;;67.83;24.63;;;;;;;-7.21;100.00;102303.14;5135071;55;1142953;-80
2022/12/19 04:18:45;;;;;;;63.33;25.73;;;;;;;-7.18;100.00;102289.04;5119534;55;1142894;-77
2022/12/19 04:23:59;;;;;;;65.67;23.63;;;;;;;-7.21;100.00;102294.14;5152406;55;1143219;-73
2022/12/19 04:29:06;;;;;;;83.07;27.00;;;;;;;-7.16;100.00;102292.52;5037279;57;1143172;-81
2022/12/19 04:34:12;;;;;;;67.50;24.60;;;;;;;-7.17;100.00;102274.07;5125538;55;1142902;-70
2022/12/19 04:39:19;;;;;;;63.40;23.02;;;;;;;-7.14;100.00;102265.15;5130098;55;1143331;-73
2022/12/19 04:44:24;;;;;;;66.77;24.03;;;;;;;-7.14;100.00;102256.15;5147426;55;1143122;-69
2022/12/19 04:49:30;;;;;;;66.13;23.30;;;;;;;-7.15;100.00;102256.98;5125456;56;1143044;-70
2022/12/19 04:54:36;;;;;;;63.53;23.40;;;;;;;-7.12;100.00;102248.47;5130461;55;1142964;-69
2022/12/19 04:59:41;;;;;;;72.93;23.63;;;;;;;-7.06;100.00;102249.91;5125144;55;1143066;-70
2022/12/19 05:04:47;;;;;;;77.90;26.33;;;;;;;-7.03;100.00;102247.41;5145916;55;1143292;-70
2022/12/19 05:09:54;;;;;;;86.57;27.50;;;;;;;-7.00;100.00;102238.87;5125593;55;1143114;-68
2022/12/19 05:15:00;;;;;;;72.03;24.07;;;;;;;-6.95;100.00;102252.70;5130545;55;1143034;-66
2022/12/19 05:20:07;;;;;;;75.45;25.52;;;;;;;-6.99;100.00;102240.19;5210257;55;1143042;-69
2022/12/19 05:25:13;;;;;;;67.90;24.27;;;;;;;-7.00;100.00;102243.59;5191340;55;1142929;-69
2022/12/19 05:30:22;;;;;;;64.22;23.30;;;;;;;-7.03;100.00;102232.40;5158597;55;1142963;-68
2022/12/19 05:35:26;;;;;;;68.83;26.03;;;;;;;-6.99;100.00;102249.19;5208408;55;1143104;-69
2022/12/19 05:40:32;;;;;;;64.97;26.00;;;;;;;-6.94;100.00;102238.59;5010076;57;1143003;-70
2022/12/19 05:45:40;;;;;;;72.97;26.57;;;;;;;-6.90;100.00;102231.41;5111388;56;1143226;-69
2022/12/19 05:50:50;;;;;;;70.37;22.30;;;;;;;-6.92;100.00;102210.34;5114043;56;1143057;-68
2022/12/19 05:56:12;;;;;;;65.47;22.23;;;;;;;-6.90;100.00;102199.67;5133911;56;1143039;-66
2022/12/19 06:01:22;;;;;;;66.97;28.67;;;;;;;-6.86;100.00;102196.30;5110386;56;1143224;-67
2022/12/19 06:06:28;;;;;;;72.17;25.35;;;;;;;-6.83;100.00;102197.23;5114089;55;1142978;-67
2022/12/19 06:11:34;;;;;;;67.47;23.77;;;;;;;-6.86;100.00;102196.30;5134482;56;1143159;-67
2022/12/19 06:16:39;;;;;;;65.07;25.67;;;;;;;-6.82;100.00;102190.39;5127218;55;1143010;-70
2022/12/19 06:21:45;;;;;;;72.05;26.75;;;;;;;-6.81;100.00;102195.56;5029137;57;1143049;-69
2022/12/19 06:26:51;;;;;;;72.87;25.57;;;;;;;-6.77;100.00;102190.95;5222149;55;1142968;-69
2022/12/19 06:31:56;;;;;;;67.30;24.70;;;;;;;-6.76;100.00;102191.39;5026970;57;1143092;-67
2022/12/19 06:37:02;;;;;;;80.60;26.00;;;;;;;-6.78;100.00;102184.06;5193350;55;1142957;-67
2022/12/19 06:42:25;;;;;;;78.00;25.40;;;;;;;-6.76;100.00;102182.39;5213813;55;1143039;-69
2022/12/19 06:47:31;;;;;;;68.10;27.80;;;;;;;-6.72;100.00;102174.29;5010906;57;1142935;-68
2022/12/19 06:52:37;;;;;;;65.57;27.98;;;;;;;-6.73;100.00;102181.59;5192912;55;1143281;-68
2022/12/19 06:57:45;;;;;;;77.10;29.90;;;;;;;-6.69;100.00;102172.20;5010442;57;1143416;-67
2022/12/19 07:02:52;;;;;;;74.27;25.20;;;;;;;-6.65;100.00;102181.72;5213403;55;1143075;-67
2022/12/19 07:07:57;;;;;;;75.00;27.00;;;;;;;-6.61;100.00;102174.09;5011741;57;1142997;-66
2022/12/19 07:13:03;;;;;;;74.70;27.07;;;;;;;-6.60;100.00;102142.80;5116545;55;1142996;-70
2022/12/19 07:18:10;;;;;;;66.43;23.27;;;;;;;-6.60;100.00;102142.80;5134332;55;1143192;-67
2022/12/19 07:23:20;;;;;;;95.77;31.55;;;;;;;-6.54;100.00;102148.04;5114742;55;1143148;-66
2022/12/19 07:28:26;;;;;;;63.75;21.68;;;;;;;-6.51;100.00;102135.23;5114451;55;1143100;-65
2022/12/19 07:33:31;;;;;;;121.07;37.43;;;;;;;-6.49;100.00;102129.70;5170998;55;1142880;-68
2022/12/19 07:38:37;;;;;;;73.93;28.07;;;;;;;-6.41;100.00;102119.11;5122108;55;1145096;-70
2022/12/19 07:43:44;;;;;;;71.82;27.07;;;;;;;-6.33;100.00;102116.68;5114548;56;1143117;-66
2022/12/19 07:48:50;;;;;;;69.57;26.70;;;;;;;-6.23;100.00;102119.84;5134451;56;1142982;-67
2022/12/19 07:53:57;;;;;;;119.07;44.30;;;;;;;-6.12;100.00;102126.06;5114010;56;1143415;-67
2022/12/19 07:59:03;;;;;;;67.73;26.57;;;;;;;-6.01;100.00;102119.78;5113881;56;1145086;-68
2022/12/19 08:04:08;;;;;;;77.13;30.43;;;;;;;-5.93;100.00;102113.89;5134221;56;1142884;-67
2022/12/19 08:09:15;;;;;;;82.10;31.13;;;;;;;-5.83;100.00;102117.45;5114370;56;1143048;-69
2022/12/19 08:14:21;;;;;;;102.50;33.88;;;;;;;-5.71;100.00;102111.19;5113623;55;1143123;-67
2022/12/19 08:19:27;;;;;;;75.50;26.23;;;;;;;-5.54;100.00;102111.42;5133872;56;1145250;-65
2022/12/19 08:24:33;;;;;;;70.77;25.03;;;;;;;-5.35;100.00;102103.10;5114547;55;1143002;-66
2022/12/19 08:29:38;;;;;;;66.33;24.67;;;;;;;-5.26;100.00;102091.59;5123320;55;1143026;-69
2022/12/19 08:34:44;;;;;;;65.77;23.03;;;;;;;-5.20;100.00;102079.22;5005571;57;1143180;-69
2022/12/19 08:39:50;;;;;;;138.53;47.40;;;;;;;-5.09;100.00;102080.20;5198815;55;1142944;-68
2022/12/19 08:44:56;;;;;;;117.37;39.57;;;;;;;-4.90;100.00;102069.66;5130773;55;1145072;-68
2022/12/19 08:50:01;;;;;;;248.23;99.23;;;;;;;-4.75;100.00;102068.52;5124757;56;1145254;-68
2022/12/19 08:55:08;;;;;;;205.40;83.90;;;;;;;-4.68;100.00;102063.84;5142070;55;1145117;-72
2022/12/19 09:00:23;;;;;;;81.63;28.77;;;;;;;-4.56;100.00;102071.69;5117934;56;1145209;-77
2022/12/19 09:05:28;;;;;;;59.30;20.72;;;;;;;-4.47;100.00;102052.85;5130932;55;1143046;-81
2022/12/19 09:10:39;;;;;;;153.10;50.97;;;;;;;-4.33;100.00;102048.24;5165477;55;1142960;-76
2022/12/19 09:15:44;;;;;;;78.55;23.95;;;;;;;-4.19;100.00;102057.37;5125882;55;1145050;-74
2022/12/19 09:20:54;;;;;;;62.40;22.83;;;;;;;-4.07;100.00;102035.92;5159914;55;1143088;-73
2022/12/19 09:26:09;;;;;;;61.67;22.87;;;;;;;-3.97;100.00;102019.61;5147787;55;1142935;-73
2022/12/19 09:31:21;;;;;;;51.50;21.63;;;;;;;-3.89;100.00;102010.20;5127959;55;1143043;-78
2022/12/19 09:36:27;;;;;;;81.47;33.37;;;;;;;-3.80;100.00;102006.36;5124901;56;1143000;-76
2022/12/19 09:42:09;;;;;;;84.60;25.67;;;;;;;-3.69;100.00;102011.61;5146040;56;1142983;-73
2022/12/19 09:47:25;;;;;;;79.67;26.83;;;;;;;-3.61;100.00;102008.18;4917822;56;1143019;-75
2022/12/19 09:52:40;;;;;;;75.80;24.73;;;;;;;-3.51;100.00;102007.78;4929667;57;1143189;-71
2022/12/19 09:58:22;;;;;;;63.87;23.57;;;;;;;-3.39;100.00;101987.59;5218423;55;1143159;-72
2022/12/19 10:03:41;;;;;;;70.87;25.03;;;;;;;-3.31;100.00;101969.05;5064220;57;1143253;-78
2022/12/19 10:08:49;;;;;;;63.43;23.03;;;;;;;-3.20;100.00;101947.94;5130352;56;1143100;-78
2022/12/19 10:14:17;;;;;;;66.13;24.97;;;;;;;-3.12;100.00;101947.54;5130482;56;1143127;-75
2022/12/19 10:19:47;;;;;;;96.75;33.08;;;;;;;-3.04;100.00;101940.63;5149975;56;1142976;-71
2022/12/19 10:25:03;;;;;;;119.10;45.00;;;;;;;-2.93;100.00;101943.25;5043884;57;1142904;-72
2022/12/19 10:30:24;;;;;;;219.67;56.97;;;;;;;-2.85;100.00;101928.14;5179133;55;1145357;-71
2022/12/19 10:35:31;;;;;;;95.40;30.12;;;;;;;-2.73;100.00;101905.69;5210479;55;1145070;-75
2022/12/19 10:40:53;;;;;;;78.30;30.70;;;;;;;-2.58;100.00;101902.64;5148667;55;1143079;-69
2022/12/19 10:46:05;;;;;;;127.30;41.97;;;;;;;-2.47;100.00;101890.13;5136529;55;1143000;-72
2022/12/19 10:51:20;;;;;;;180.87;52.53;;;;;;;-2.39;100.00;101886.64;5129401;55;1145010;-70
2022/12/19 10:56:30;;;;;;;129.07;38.63;;;;;;;-2.26;100.00;101884.44;5191327;55;1145270;-79
2022/12/19 11:01:39;;;;;;;108.37;35.27;;;;;;;-2.14;100.00;101880.50;5129773;55;1145018;-77
2022/12/19 11:07:04;;;;;;;65.27;23.57;;;;;;;-2.01;100.00;101875.30;5129895;55;1145041;-72
2022/12/19 11:12:17;;;;;;;103.17;36.80;;;;;;;-1.90;100.00;101859.25;5150754;55;1143153;-73
2022/12/19 11:17:37;;;;;;;80.87;29.95;;;;;;;-1.78;100.00;101847.51;5166403;55;1145126;-68
2022/12/19 11:22:56;;;;;;;91.63;35.60;;;;;;;-1.68;100.00;101847.87;5157591;55;1143005;-75
2022/12/19 11:28:21;;;;;;;79.67;31.53;;;;;;;-1.57;100.00;101819.29;5127824;56;1142994;-73
2022/12/19 11:33:27;;;;;;;68.80;24.57;;;;;;;-1.47;100.00;101815.75;5011917;57;1143180;-79
2022/12/19 11:38:53;;;;;;;76.83;30.50;;;;;;;-1.30;100.00;101824.27;5217318;55;1143126;-74
2022/12/19 11:44:15;;;;;;;91.67;33.57;;;;;;;-1.03;100.00;101813.22;5217066;55;1143007;-77
2022/12/19 11:49:45;;;;;;;145.63;54.30;;;;;;;-0.80;100.00;101809.53;5043079;57;1143036;-76
2022/12/19 11:55:00;;;;;;;67.83;28.93;;;;;;;-0.53;100.00;101807.50;5205530;55;1145163;-78
2022/12/19 12:00:13;;;;;;;142.17;50.57;;;;;;;-0.25;100.00;101791.14;5235332;55;1143068;-78
2022/12/19 12:05:46;;;;;;;87.47;30.10;;;;;;;-0.04;100.00;101784.36;5217212;55;1145129;-79
2022/12/19 12:11:13;;;;;;;111.60;33.53;;;;;;;-0.05;100.00;101778.30;5216721;55;1143181;-82
2022/12/19 12:16:20;;;;;;;121.43;37.87;;;;;;;-0.24;100.00;101761.22;5216757;55;1145341;-77
2022/12/19 12:21:51;;;;;;;216.00;75.47;;;;;;;-0.46;100.00;101746.80;5237418;55;1145234;-79
2022/12/19 12:27:28;;;;;;;77.20;30.87;;;;;;;-0.61;100.00;101737.43;5186196;55;1145149;-77
2022/12/19 12:32:47;;;;;;;77.60;27.73;;;;;;;-0.74;100.00;101725.47;5160632;55;1143149;-77
2022/12/19 12:38:23;;;;;;;107.58;37.05;;;;;;;-0.80;100.00;101716.47;5207908;55;1143134;-74
2022/12/19 12:43:45;;;;;;;77.20;28.63;;;;;;;-0.82;100.00;101703.50;5227986;55;1145152;-83
2022/12/19 12:48:58;;;;;;;70.87;28.13;;;;;;;-0.83;100.00;101679.70;5128741;55;1143209;-75
2022/12/19 12:54:11;;;;;;;257.35;82.37;;;;;;;-0.80;100.00;101674.48;5127970;55;1143185;-77
2022/12/19 12:59:24;;;;;;;109.00;38.17;;;;;;;-0.77;100.00;101681.37;5162575;56;1145226;-73
2022/12/19 13:04:34;;;;;;;112.30;39.47;;;;;;;-0.74;100.00;101662.69;5128561;56;1145148;-81
2022/12/19 13:09:40;;;;;;;47.25;18.55;;;;;;;-0.58;100.00;101647.77;5127934;56;1145158;-76
2022/12/19 13:14:49;;;;;;;109.72;39.13;;;;;;;-0.51;100.00;101642.91;5138473;55;1142988;-71
2022/12/19 13:20:12;;;;;;;66.90;23.53;;;;;;;-0.46;100.00;101637.66;5149337;55;1145670;-77
2022/12/19 13:25:35;;;;;;;44.95;17.42;;;;;;;-0.41;100.00;101635.39;5122281;55;1143104;-72
2022/12/19 13:31:09;;;;;;;90.77;34.67;;;;;;;-0.41;100.00;101646.23;5135911;55;1143516;-75
2022/12/19 13:36:52;;;;;;;53.80;23.20;;;;;;;-0.40;100.00;101635.81;5188404;55;1143202;-73
2022/12/19 13:47:39;;;;;;;153.80;54.53;;;;;;;-0.38;100.00;101628.86;5150904;56;1143089;-75
2022/12/19 13:52:50;;;;;;;71.83;26.83;;;;;;;-0.36;100.00;101619.74;5176418;55;1145290;-73
2022/12/19 13:57:57;;;;;;;75.47;28.13;;;;;;;-0.38;100.00;101604.16;5173171;55;1143151;-71
2022/12/19 14:03:03;;;;;;;83.40;30.07;;;;;;;-0.36;100.00;101601.55;5220503;55;1143057;-77
2022/12/19 14:08:11;;;;;;;86.27;32.60;;;;;;;-0.34;100.00;101601.09;5177483;55;1143174;-79
2022/12/19 14:18:50;;;;;;;82.22;35.73;;;;;;;-0.29;100.00;101583.66;5199050;55;1143147;-69
2022/12/19 14:24:20;;;;;;;67.97;26.23;;;;;;;-0.27;100.00;101575.84;5184192;55;1143140;-70
2022/12/19 14:29:30;;;;;;;97.10;31.40;;;;;;;-0.25;100.00;101582.73;5130774;56;1143066;-75
2022/12/19 14:34:36;;;;;;;60.10;23.53;;;;;;;-0.24;100.00;101580.55;5182118;55;1143042;-71
2022/12/19 14:39:42;;;;;;;54.73;22.47;;;;;;;-0.21;100.00;101571.85;5218458;55;1143132;-73
2022/12/19 14:44:54;;;;;;;76.80;28.90;;;;;;;-0.18;100.00;101560.11;5224027;55;1143212;-73
2022/12/19 14:50:01;;;;;;;87.03;30.77;;;;;;;-0.17;100.00;101564.42;5165412;55;1143171;-73
2022/12/19 14:55:28;;;;;;;58.33;24.40;;;;;;;-0.14;100.00;101557.41;5015446;57;1143254;-82
2022/12/19 15:00:39;;;;;;;70.00;31.33;;;;;;;-0.10;100.00;101553.88;5135352;55;1143159;-74
2022/12/19 15:05:45;;;;;;;95.10;37.63;;;;;;;-0.07;100.00;101547.77;5134733;55;1142913;-73
2022/12/19 15:10:51;;;;;;;53.87;22.43;;;;;;;-0.09;100.00;101535.23;4982879;57;1143202;-73
2022/12/19 15:16:04;;;;;;;127.83;40.83;;;;;;;-0.02;100.00;101542.06;5090221;55;1143108;-74
2022/12/19 15:21:14;;;;;;;59.80;24.17;;;;;;;0.00;100.00;101535.09;5114898;55;1145304;-71
2022/12/19 15:26:31;;;;;;;90.63;30.83;;;;;;;0.02;100.00;101531.14;5187305;55;1141094;-75
2022/12/19 15:31:43;;;;;;;56.60;23.47;;;;;;;0.03;100.00;101525.05;5108605;55;1141131;-74
2022/12/19 15:36:49;;;;;;;64.53;26.60;;;;;;;0.05;100.00;101529.78;5201723;55;1141035;-69
2022/12/19 15:41:58;;;;;;;55.52;23.57;;;;;;;0.05;100.00;101512.44;5029511;57;1140977;-71
2022/12/19 15:47:07;;;;;;;70.10;29.67;;;;;;;0.07;100.00;101509.81;5134818;56;1141105;-72
2022/12/19 15:52:20;;;;;;;61.57;25.27;;;;;;;0.07;100.00;101499.41;5186162;55;1141159;-75
2022/12/19 15:57:46;;;;;;;;;;;;;;;0.08;100.00;101492.89;5136881;55;1141120;-71
2022/12/19 16:02:54;;;;;;;50.03;20.65;;;;;;;0.10;100.00;101481.16;5193823;55;974179;-71
2022/12/19 16:07:59;;;;;;;61.17;24.23;;;;;;;0.09;100.00;101468.59;5146227;56;1138994;-69
2022/12/19 16:13:06;;;;;;;59.33;24.77;;;;;;;0.09;100.00;101462.09;5148900;55;1140938;-78
2022/12/19 16:18:14;;;;;;;46.53;20.67;;;;;;;0.07;100.00;101457.80;5125883;55;1140941;-72
2022/12/19 16:23:21;;;;;;;76.07;29.03;;;;;;;0.05;100.00;101445.27;5186477;55;1141170;-72
2022/12/19 16:28:33;;;;;;;57.67;24.70;;;;;;;0.04;100.00;101428.80;5126097;56;1140959;-77
2022/12/19 16:33:38;;;;;;;60.73;28.40;;;;;;;0.03;100.00;101444.44;5126493;55;1141181;-73
2022/12/19 16:38:44;;;;;;;59.57;25.20;;;;;;;-0.01;100.00;101428.92;5130506;55;1141081;-67
2022/12/19 16:43:50;;;;;;;57.97;24.97;;;;;;;-0.01;100.00;101415.92;5145652;56;1143190;-72
2022/12/19 16:49:00;;;;;;;88.00;36.48;;;;;;;-0.02;100.00;101412.05;5125441;56;1143016;-70
2022/12/19 16:54:06;;;;;;;53.00;24.07;;;;;;;-0.02;100.00;101406.84;5125214;56;1142957;-72
2022/12/19 16:59:20;;;;;;;121.63;42.30;;;;;;;-0.03;100.00;101396.03;5215681;55;1143101;-73
2022/12/19 17:04:27;;;;;;;164.95;49.33;;;;;;;-0.02;100.00;101397.74;5216606;55;1145488;-73
2022/12/19 17:09:33;;;;;;;172.83;65.90;;;;;;;-0.03;100.00;101386.48;5217579;55;1145205;-75
2022/12/19 17:14:39;;;;;;;82.16;33.30;;;;;;;-0.01;100.00;101392.95;5229785;55;1145225;-73
2022/12/19 17:19:46;;;;;;;70.27;29.30;;;;;;;-0.01;100.00;101384.72;5053897;57;1142985;-75
2022/12/19 17:24:52;;;;;;;273.03;86.57;;;;;;;0.02;100.00;101391.56;5200531;55;1143060;-72
2022/12/19 17:29:58;;;;;;;80.70;31.13;;;;;;;0.05;100.00;101391.52;5129797;56;1143157;-70
2022/12/19 17:35:04;;;;;;;95.30;39.03;;;;;;;0.08;100.00;101383.66;5150457;55;1141226;-72
2022/12/19 17:40:20;;;;;;;73.03;36.10;;;;;;;0.08;100.00;101381.05;5130337;56;1141072;-75
2022/12/19 17:45:31;;;;;;;65.83;28.47;;;;;;;0.08;100.00;101367.19;5130558;56;1141048;-70
2022/12/19 17:50:39;;;;;;;105.90;47.97;;;;;;;0.09;100.00;101368.46;5114698;55;1141093;-73
2022/12/19 17:55:45;;;;;;;66.20;30.67;;;;;;;0.09;100.00;101359.80;5129831;56;1143004;-71
2022/12/19 18:00:51;;;;;;;65.28;30.30;;;;;;;0.11;100.00;101358.03;5125777;56;1140989;-73
2022/12/19 18:05:59;;;;;;;54.03;23.10;;;;;;;0.11;100.00;101350.23;5146030;56;1140974;-71
2022/12/19 18:11:09;;;;;;;88.80;35.80;;;;;;;0.10;100.00;101354.58;5126398;56;1141138;-72
2022/12/19 18:16:19;;;;;;;77.83;33.93;;;;;;;0.08;100.00;101352.45;5126249;55;1140977;-71
2022/12/19 18:21:25;;;;;;;67.77;28.77;;;;;;;0.09;100.00;101346.80;5146755;55;1141182;-70
2022/12/19 18:26:30;;;;;;;54.40;23.07;;;;;;;0.10;100.00;101340.27;5126319;55;1140928;-74
2022/12/19 18:31:36;;;;;;;42.23;19.37;;;;;;;0.10;100.00;101340.27;5168491;55;1141181;-75
2022/12/19 18:36:44;;;;;;;61.23;27.93;;;;;;;0.12;100.00;101339.80;5034767;57;1141013;-74
2022/12/19 18:41:50;;;;;;;88.07;40.57;;;;;;;0.15;100.00;101328.47;5145858;56;1140873;-70
2022/12/19 18:46:55;;;;;;;58.53;28.73;;;;;;;0.16;100.00;101319.30;5125765;56;1141152;-71
2022/12/19 18:52:01;;;;;;;63.80;28.80;;;;;;;0.17;100.00;101320.16;5126077;56;1141098;-78
2022/12/19 18:57:07;;;;;;;56.30;25.57;;;;;;;0.16;100.00;101326.25;5145965;56;1140787;-73
2022/12/19 19:02:23;;;;;;;89.57;39.03;;;;;;;0.16;100.00;101315.85;5126356;56;1141376;-73
2022/12/19 19:07:29;;;;;;;64.32;28.00;;;;;;;0.14;100.00;101309.41;5121181;56;1141071;-75
2022/12/19 19:12:35;;;;;;;87.25;34.60;;;;;;;0.14;100.00;101304.66;5146674;55;1141082;-75
2022/12/19 19:17:42;;;;;;;101.38;39.95;;;;;;;0.16;100.00;101298.94;5156753;55;1140901;-80
2022/12/19 19:22:48;;;;;;;59.70;23.90;;;;;;;0.18;100.00;101303.67;5150632;55;1143126;-76
2022/12/19 19:27:55;;;;;;;53.53;22.43;;;;;;;0.20;100.00;101300.59;5187530;55;1140985;-72
2022/12/19 19:33:16;;;;;;;65.87;23.30;;;;;;;0.23;100.00;101305.29;5153790;55;1140931;-73
2022/12/19 19:38:23;;;;;;;85.50;34.03;;;;;;;0.25;100.00;101307.86;5213047;55;1141028;-72
2022/12/19 19:43:35;;;;;;;65.97;28.55;;;;;;;0.27;100.00;101303.04;5234090;55;1141112;-68
2022/12/19 19:48:40;;;;;;;62.20;26.67;;;;;;;0.30;100.00;101287.81;5212607;55;1141027;-76
2022/12/19 19:53:45;;;;;;;60.33;28.23;;;;;;;0.32;100.00;101291.20;5213278;55;1141302;-69
2022/12/19 19:58:53;;;;;;;62.43;27.87;;;;;;;0.34;100.00;101286.38;5142709;55;1141450;-77
2022/12/19 20:03:59;;;;;;;61.00;28.93;;;;;;;0.37;100.00;101280.25;5136371;56;1141107;-70
2022/12/19 20:09:05;;;;;;;53.80;23.63;;;;;;;0.38;100.00;101280.67;5114682;56;1140816;-73
2022/12/19 20:14:11;;;;;;;65.33;29.03;;;;;;;0.41;100.00;101281.91;5114756;56;1141040;-76
2022/12/19 20:19:16;;;;;;;52.70;23.90;;;;;;;0.43;100.00;101281.88;5090251;56;1140973;-77
2022/12/19 20:24:22;;;;;;;54.60;23.20;;;;;;;0.44;100.00;101273.17;5115998;55;1140940;-78
2022/12/19 20:29:28;;;;;;;53.70;24.20;;;;;;;0.44;100.00;101267.52;5114866;56;1141153;-71
2022/12/19 20:34:34;;;;;;;50.90;23.57;;;;;;;0.47;100.00;101267.42;5134899;56;1140991;-73
2022/12/19 20:39:40;;;;;;;44.67;20.27;;;;;;;0.49;100.00;101263.48;5104508;55;1140968;-76
2022/12/19 20:44:46;;;;;;;47.73;22.77;;;;;;;0.50;100.00;101260.84;5114968;55;1141017;-72
2022/12/19 20:49:52;;;;;;;53.90;24.83;;;;;;;0.53;100.00;101252.12;5135147;55;1141186;-80
2022/12/19 20:54:57;;;;;;;52.23;25.10;;;;;;;0.53;100.00;101249.52;5115064;55;1140989;-74
2022/12/19 21:00:07;;;;;;;47.40;18.60;;;;;;;0.55;100.00;101242.53;5115607;55;1141135;-75
2022/12/19 21:05:12;;;;;;;48.40;23.40;;;;;;;0.55;100.00;101238.62;5134980;55;1140952;-74
2022/12/19 21:10:19;;;;;;;42.43;19.53;;;;;;;0.59;100.00;101244.17;5114339;56;1140996;-78
2022/12/19 21:15:24;;;;;;;47.70;22.23;;;;;;;0.63;100.00;101235.37;5114516;56;1141014;-82
2022/12/19 21:20:32;;;;;;;48.87;21.70;;;;;;;0.63;100.00;101224.95;5134641;56;1141136;-75
2022/12/19 21:25:37;;;;;;;48.23;22.87;;;;;;;0.67;100.00;101223.55;5114920;56;1140969;-76
2022/12/19 21:30:43;;;;;;;43.33;19.05;;;;;;;0.70;100.00;101220.88;5128396;55;1141147;-82
2022/12/19 21:35:50;;;;;;;58.55;27.67;;;;;;;0.73;100.00;101218.64;5137493;55;1141117;-71
2022/12/19 21:40:55;;;;;;;44.70;21.93;;;;;;;0.76;100.00;101212.51;5162338;55;1140855;-76
2022/12/19 21:46:11;;;;;;;53.37;25.13;;;;;;;0.79;100.00;101205.89;5029839;57;1140983;-73
2022/12/19 21:51:20;;;;;;;41.57;19.30;;;;;;;0.82;100.00;101198.86;5131308;55;1141104;-77
2022/12/19 21:56:38;;;;;;;46.67;21.07;;;;;;;0.85;100.00;101192.27;5154094;55;1140984;-80
2022/12/19 22:01:45;;;;;;;51.70;23.45;;;;;;;0.89;100.00;101195.66;5029897;57;1141131;-76
2022/12/19 22:06:52;;;;;;;47.17;20.97;;;;;;;0.94;100.00;101191.16;5108708;55;1141273;-78
2022/12/19 22:11:58;;;;;;;51.30;23.37;;;;;;;0.96;100.00;101186.77;5066681;56;1140933;-78
2022/12/19 22:17:04;;;;;;;48.93;23.80;;;;;;;0.96;100.00;101175.91;5043968;56;1140886;-77
2022/12/19 22:22:10;;;;;;;52.62;24.25;;;;;;;0.99;100.00;101177.13;5043772;57;1141026;-74
2022/12/19 22:27:15;;;;;;;55.33;24.77;;;;;;;1.01;100.00;101178.39;5063903;56;1141095;-78
2022/12/19 22:32:21;;;;;;;39.30;18.07;;;;;;;1.02;100.00;101163.17;5075609;55;1140879;-83
2022/12/19 22:37:26;;;;;;;51.17;23.53;;;;;;;1.06;100.00;101167.41;5215349;55;1182202;-75
2022/12/19 22:42:32;;;;;;;46.30;22.57;;;;;;;1.05;100.00;101152.22;5236582;55;1141014;-78
2022/12/19 22:47:42;;;;;;;44.97;22.17;;;;;;;1.13;100.00;101171.97;5216444;55;1141091;-76
2022/12/19 22:52:47;;;;;;;46.73;20.03;;;;;;;1.16;100.00;101164.93;5162828;55;1140922;-74
2022/12/19 22:57:54;;;;;;;47.58;21.85;;;;;;;1.19;100.00;101161.39;5043786;56;1140954;-83
2022/12/19 23:02:59;;;;;;;58.47;30.23;;;;;;;1.23;100.00;101152.11;5076149;55;1140972;-74
2022/12/19 23:08:06;;;;;;;43.57;22.77;;;;;;;1.26;100.00;101141.61;5208564;55;1140954;-77